createdAt,value
2017-08-24T00:00:32.621Z,1004.79
2017-08-24T00:01:32.614Z,1004.81
2017-08-24T00:02:32.603Z,1004.82
2017-08-24T00:03:32.598Z,1004.76
2017-08-24T00:04:32.588Z,1004.76
2017-08-24T00:05:32.578Z,1004.83
2017-08-24T00:06:32.570Z,1004.81
2017-08-24T00:07:32.561Z,1004.78
2017-08-24T00:08:32.551Z,1004.77
2017-08-24T00:09:32.544Z,1004.78
2017-08-24T00:10:32.536Z,1004.78
2017-08-24T00:11:32.526Z,1004.72
2017-08-24T00:12:32.518Z,1004.8
2017-08-24T00:13:32.511Z,1004.77
2017-08-24T00:14:32.502Z,1004.8
2017-08-24T00:15:32.509Z,1004.81
2017-08-24T00:16:32.486Z,1004.86
2017-08-24T00:17:32.482Z,1004.77
2017-08-24T00:18:32.468Z,1004.81
2017-08-24T00:19:32.456Z,1004.82
2017-08-24T00:20:32.448Z,1004.84
2017-08-24T00:21:32.440Z,1004.85
2017-08-24T00:22:32.436Z,1004.86
2017-08-24T00:23:32.423Z,1004.83
2017-08-24T00:24:32.413Z,1004.87
2017-08-24T00:25:32.407Z,1004.85
2017-08-24T00:26:32.396Z,1004.96
2017-08-24T00:27:32.387Z,1004.9
2017-08-24T00:28:32.379Z,1004.98
2017-08-24T00:29:32.370Z,1004.96
2017-08-24T00:30:32.411Z,1004.99
2017-08-24T00:31:32.352Z,1005.03
2017-08-24T00:32:32.347Z,1005.01
2017-08-24T00:33:32.335Z,1005.03
2017-08-24T00:34:32.327Z,1005.05
2017-08-24T00:35:32.319Z,1005.12
2017-08-24T00:36:32.309Z,1005.12
2017-08-24T00:37:32.301Z,1005.08
2017-08-24T00:38:32.295Z,1005.04
2017-08-24T00:39:32.285Z,1005.06
2017-08-24T00:40:32.326Z,1005.11
2017-08-24T00:41:32.268Z,1005.14
2017-08-24T00:42:32.258Z,1005.2
2017-08-24T00:43:32.253Z,1005.24
2017-08-24T00:44:32.239Z,1005.21
2017-08-24T00:45:32.232Z,1005.21
2017-08-24T00:46:32.228Z,1005.3
2017-08-24T00:47:32.215Z,1005.2
2017-08-24T00:48:32.205Z,1005.17
2017-08-24T00:49:32.198Z,1005.23
2017-08-24T00:50:32.238Z,1005.26
2017-08-24T00:51:32.179Z,1005.24
2017-08-24T00:52:32.170Z,1005.26
2017-08-24T00:53:32.163Z,1005.28
2017-08-24T00:54:32.152Z,1005.25
2017-08-24T00:55:32.144Z,1005.2
2017-08-24T00:56:32.137Z,1005.18
2017-08-24T00:57:32.128Z,1005.21
2017-08-24T00:58:32.120Z,1005.21
2017-08-24T00:59:32.111Z,1005.2
2017-08-24T01:00:32.101Z,1005.18
2017-08-24T01:01:32.093Z,1005.2
2017-08-24T01:02:32.084Z,1005.22
2017-08-24T01:03:32.075Z,1005.25
2017-08-24T01:04:32.070Z,1005.28
2017-08-24T01:05:32.064Z,1005.27
2017-08-24T01:06:32.048Z,1005.23
2017-08-24T01:07:32.040Z,1005.26
2017-08-24T01:08:32.032Z,1005.27
2017-08-24T01:09:32.023Z,1005.27
2017-08-24T01:10:32.015Z,1005.29
2017-08-24T01:11:32.006Z,1005.3
2017-08-24T01:12:31.995Z,1005.3
2017-08-24T01:13:31.988Z,1005.2
2017-08-24T01:14:31.978Z,1005.18
2017-08-24T01:15:31.971Z,1005.2
2017-08-24T01:16:31.960Z,1005.19
2017-08-24T01:17:31.952Z,1005.19
2017-08-24T01:18:31.945Z,1005.19
2017-08-24T01:19:31.936Z,1005.23
2017-08-24T01:20:31.926Z,1005.15
2017-08-24T01:21:31.915Z,1005.21
2017-08-24T01:22:31.908Z,1005.19
2017-08-24T01:23:31.901Z,1005.23
2017-08-24T01:24:31.891Z,1005.25
2017-08-24T01:25:31.881Z,1005.3
2017-08-24T01:26:31.873Z,1005.29
2017-08-24T01:27:31.864Z,1005.32
2017-08-24T01:28:31.855Z,1005.31
2017-08-24T01:29:31.846Z,1005.33
2017-08-24T01:30:31.837Z,1005.29
2017-08-24T01:31:31.829Z,1005.3
2017-08-24T01:32:31.818Z,1005.31
2017-08-24T01:33:31.810Z,1005.28
2017-08-24T01:34:31.802Z,1005.29
2017-08-24T01:35:31.794Z,1005.32
2017-08-24T01:36:31.784Z,1005.3
2017-08-24T01:37:31.782Z,1005.3
2017-08-24T01:38:31.767Z,1005.28
2017-08-24T01:39:31.756Z,1005.31
2017-08-24T01:40:31.748Z,1005.36
2017-08-24T01:41:31.741Z,1005.32
2017-08-24T01:42:31.730Z,1005.35
2017-08-24T01:43:31.721Z,1005.35
2017-08-24T01:44:31.713Z,1005.38
2017-08-24T01:45:31.703Z,1005.28
2017-08-24T01:46:31.694Z,1005.27
2017-08-24T01:47:31.686Z,1005.3
2017-08-24T01:48:31.676Z,1005.3
2017-08-24T01:49:31.666Z,1005.29
2017-08-24T01:50:31.657Z,1005.25
2017-08-24T01:51:31.647Z,1005.28
2017-08-24T01:52:31.638Z,1005.28
2017-08-24T01:53:31.631Z,1005.23
2017-08-24T01:54:31.621Z,1005.26
2017-08-24T01:55:31.612Z,1005.29
2017-08-24T01:56:31.603Z,1005.24
2017-08-24T01:57:31.593Z,1005.28
2017-08-24T01:58:31.585Z,1005.28
2017-08-24T01:59:31.576Z,1005.22
2017-08-24T02:00:31.565Z,1005.23
2017-08-24T02:01:31.555Z,1005.27
2017-08-24T02:02:31.550Z,1005.23
2017-08-24T02:03:31.542Z,1005.25
2017-08-24T02:04:31.528Z,1005.28
2017-08-24T02:05:31.522Z,1005.23
2017-08-24T02:06:31.510Z,1005.27
2017-08-24T02:07:31.502Z,1005.23
2017-08-24T02:08:31.491Z,1005.25
2017-08-24T02:09:31.483Z,1005.29
2017-08-24T02:10:31.476Z,1005.35
2017-08-24T02:11:31.464Z,1005.36
2017-08-24T02:12:31.457Z,1005.35
2017-08-24T02:13:31.445Z,1005.45
2017-08-24T02:14:31.436Z,1005.39
2017-08-24T02:15:31.428Z,1005.4
2017-08-24T02:16:31.418Z,1005.43
2017-08-24T02:17:31.410Z,1005.4
2017-08-24T02:18:31.400Z,1005.4
2017-08-24T02:19:31.390Z,1005.41
2017-08-24T02:20:31.380Z,1005.42
2017-08-24T02:21:31.372Z,1005.37
2017-08-24T02:22:31.362Z,1005.37
2017-08-24T02:23:31.351Z,1005.38
2017-08-24T02:24:31.342Z,1005.37
2017-08-24T02:25:31.335Z,1005.35
2017-08-24T02:26:31.326Z,1005.35
2017-08-24T02:27:31.316Z,1005.34
2017-08-24T02:28:31.305Z,1005.38
2017-08-24T02:29:31.304Z,1005.31
2017-08-24T02:30:31.286Z,1005.33
2017-08-24T02:31:31.279Z,1005.35
2017-08-24T02:32:31.269Z,1005.35
2017-08-24T02:33:31.259Z,1005.38
2017-08-24T02:34:31.249Z,1005.38
2017-08-24T02:35:31.243Z,1005.48
2017-08-24T02:36:31.231Z,1005.43
2017-08-24T02:37:31.224Z,1005.4
2017-08-24T02:38:31.214Z,1005.34
2017-08-24T02:39:31.203Z,1005.32
2017-08-24T02:40:31.195Z,1005.35
2017-08-24T02:41:31.185Z,1005.3
2017-08-24T02:42:31.199Z,1005.3
2017-08-24T02:43:31.167Z,1005.27
2017-08-24T02:44:31.158Z,1005.31
2017-08-24T02:45:31.147Z,1005.28
2017-08-24T02:46:31.140Z,1005.28
2017-08-24T02:47:31.130Z,1005.3
2017-08-24T02:48:31.121Z,1005.3
2017-08-24T02:49:31.132Z,1005.24
2017-08-24T02:50:31.102Z,1005.31
2017-08-24T02:51:31.096Z,1005.29
2017-08-24T02:52:31.083Z,1005.32
2017-08-24T02:53:31.074Z,1005.33
2017-08-24T02:54:31.065Z,1005.29
2017-08-24T02:55:31.056Z,1005.33
2017-08-24T02:56:31.048Z,1005.32
2017-08-24T02:57:31.036Z,1005.34
2017-08-24T02:58:31.027Z,1005.3
2017-08-24T02:59:31.021Z,1005.29
2017-08-24T03:00:31.010Z,1005.28
2017-08-24T03:01:30.999Z,1005.36
2017-08-24T03:02:30.991Z,1005.39
2017-08-24T03:03:30.981Z,1005.38
2017-08-24T03:04:30.973Z,1005.39
2017-08-24T03:05:30.962Z,1005.4
2017-08-24T03:06:30.954Z,1005.41
2017-08-24T03:07:30.944Z,1005.45
2017-08-24T03:08:30.934Z,1005.41
2017-08-24T03:09:30.926Z,1005.44
2017-08-24T03:10:30.917Z,1005.39
2017-08-24T03:11:30.907Z,1005.41
2017-08-24T03:12:30.898Z,1005.39
2017-08-24T03:13:30.890Z,1005.4
2017-08-24T03:14:30.878Z,1005.42
2017-08-24T03:15:30.873Z,1005.44
2017-08-24T03:16:30.861Z,1005.49
2017-08-24T03:17:30.853Z,1005.55
2017-08-24T03:18:30.846Z,1005.53
2017-08-24T03:19:30.835Z,1005.58
2017-08-24T03:20:30.824Z,1005.62
2017-08-24T03:21:30.815Z,1005.62
2017-08-24T03:22:30.806Z,1005.61
2017-08-24T03:23:30.797Z,1005.58
2017-08-24T03:24:30.790Z,1005.57
2017-08-24T03:25:30.777Z,1005.56
2017-08-24T03:26:30.769Z,1005.57
2017-08-24T03:27:30.762Z,1005.57
2017-08-24T03:28:30.751Z,1005.63
2017-08-24T03:29:30.745Z,1005.66
2017-08-24T03:30:30.738Z,1005.61
2017-08-24T03:31:30.724Z,1005.58
2017-08-24T03:32:30.714Z,1005.58
2017-08-24T03:33:30.704Z,1005.62
2017-08-24T03:34:30.696Z,1005.61
2017-08-24T03:35:30.688Z,1005.61
2017-08-24T03:36:30.677Z,1005.66
2017-08-24T03:37:30.669Z,1005.61
2017-08-24T03:38:30.659Z,1005.65
2017-08-24T03:39:30.648Z,1005.66
2017-08-24T03:40:30.640Z,1005.69
2017-08-24T03:41:30.631Z,1005.71
2017-08-24T03:42:30.622Z,1005.68
2017-08-24T03:43:30.615Z,1005.68
2017-08-24T03:44:30.605Z,1005.71
2017-08-24T03:45:30.595Z,1005.66
2017-08-24T03:46:30.586Z,1005.62
2017-08-24T03:47:30.578Z,1005.64
2017-08-24T03:48:30.566Z,1005.67
2017-08-24T03:49:30.558Z,1005.7
2017-08-24T03:50:30.551Z,1005.7
2017-08-24T03:51:30.539Z,1005.77
2017-08-24T03:52:30.531Z,1005.72
2017-08-24T03:53:30.522Z,1005.7
2017-08-24T03:54:30.512Z,1005.74
2017-08-24T03:55:30.507Z,1005.73
2017-08-24T03:56:30.696Z,1005.77
2017-08-24T03:57:30.486Z,1005.72
2017-08-24T03:58:30.474Z,1005.71
2017-08-24T03:59:30.469Z,1005.73
2017-08-24T04:00:30.458Z,1005.7
2017-08-24T04:01:30.446Z,1005.73
2017-08-24T04:02:30.437Z,1005.73
2017-08-24T04:03:30.429Z,1005.78
2017-08-24T04:04:30.418Z,1005.77
2017-08-24T04:05:30.411Z,1005.78
2017-08-24T04:06:30.400Z,1005.8
2017-08-24T04:07:30.390Z,1005.8
2017-08-24T04:08:30.381Z,1005.77
2017-08-24T04:09:30.371Z,1005.81
2017-08-24T04:10:30.364Z,1005.79
2017-08-24T04:11:30.354Z,1005.84
2017-08-24T04:12:30.344Z,1005.82
2017-08-24T04:13:30.336Z,1005.85
2017-08-24T04:14:30.325Z,1005.89
2017-08-24T04:15:30.316Z,1005.89
2017-08-24T04:16:30.307Z,1005.85
2017-08-24T04:17:30.297Z,1005.88
2017-08-24T04:18:30.287Z,1005.87
2017-08-24T04:19:30.281Z,1005.89
2017-08-24T04:20:30.268Z,1005.92
2017-08-24T04:21:30.258Z,1005.89
2017-08-24T04:22:30.250Z,1005.93
2017-08-24T04:23:30.241Z,1005.92
2017-08-24T04:24:30.229Z,1005.94
2017-08-24T04:25:30.223Z,1005.99
2017-08-24T04:26:30.212Z,1005.96
2017-08-24T04:27:30.202Z,1006.01
2017-08-24T04:28:30.193Z,1005.99
2017-08-24T04:29:30.182Z,1005.98
2017-08-24T04:30:30.174Z,1006.01
2017-08-24T04:31:30.163Z,1006.01
2017-08-24T04:32:30.155Z,1006.05
2017-08-24T04:33:30.145Z,1006.05
2017-08-24T04:34:30.135Z,1006.05
2017-08-24T04:35:30.149Z,1006.06
2017-08-24T04:36:30.115Z,1006.07
2017-08-24T04:37:30.106Z,1006.14
2017-08-24T04:38:30.097Z,1006.15
2017-08-24T04:39:30.086Z,1006.11
2017-08-24T04:40:30.082Z,1006.12
2017-08-24T04:41:30.065Z,1006.18
2017-08-24T04:42:30.055Z,1006.15
2017-08-24T04:43:30.048Z,1006.16
2017-08-24T04:44:30.040Z,1006.16
2017-08-24T04:45:30.027Z,1006.27
2017-08-24T04:46:30.017Z,1006.19
2017-08-24T04:47:30.009Z,1006.18
2017-08-24T04:48:29.999Z,1006.17
2017-08-24T04:49:29.989Z,1006.21
2017-08-24T04:50:29.978Z,1006.18
2017-08-24T04:51:29.967Z,1006.2
2017-08-24T04:52:29.957Z,1006.25
2017-08-24T04:53:29.949Z,1006.28
2017-08-24T04:54:29.938Z,1006.33
2017-08-24T04:55:29.928Z,1006.29
2017-08-24T04:56:29.919Z,1006.34
2017-08-24T04:57:29.908Z,1006.32
2017-08-24T04:58:29.899Z,1006.35
2017-08-24T04:59:29.889Z,1006.37
2017-08-24T05:00:29.878Z,1006.37
2017-08-24T05:01:29.868Z,1006.36
2017-08-24T05:02:29.858Z,1006.36
2017-08-24T05:03:29.850Z,1006.37
2017-08-24T05:04:29.839Z,1006.41
2017-08-24T05:05:29.832Z,1006.44
2017-08-24T05:06:29.818Z,1006.38
2017-08-24T05:07:29.805Z,1006.35
2017-08-24T05:08:29.798Z,1006.43
2017-08-24T05:09:29.787Z,1006.41
2017-08-24T05:10:29.779Z,1006.43
2017-08-24T05:11:29.768Z,1006.44
2017-08-24T05:12:29.756Z,1006.48
2017-08-24T05:13:29.748Z,1006.48
2017-08-24T05:14:29.738Z,1006.48
2017-08-24T05:15:29.777Z,1006.48
2017-08-24T05:16:29.719Z,1006.56
2017-08-24T05:17:29.709Z,1006.48
2017-08-24T05:18:29.696Z,1006.64
2017-08-24T05:19:29.688Z,1006.62
2017-08-24T05:20:29.680Z,1006.64
2017-08-24T05:21:29.669Z,1006.64
2017-08-24T05:22:29.656Z,1006.66
2017-08-24T05:23:29.646Z,1006.67
2017-08-24T05:24:29.639Z,1006.69
2017-08-24T05:25:29.626Z,1006.66
2017-08-24T05:26:29.620Z,1006.71
2017-08-24T05:27:29.606Z,1006.72
2017-08-24T05:28:29.598Z,1006.73
2017-08-24T05:29:29.585Z,1006.7
2017-08-24T05:30:29.576Z,1006.66
2017-08-24T05:31:29.566Z,1006.7
2017-08-24T05:32:29.558Z,1006.67
2017-08-24T05:33:29.548Z,1006.65
2017-08-24T05:34:29.537Z,1006.61
2017-08-24T05:35:29.527Z,1006.61
2017-08-24T05:36:29.516Z,1006.64
2017-08-24T05:37:29.505Z,1006.63
2017-08-24T05:38:29.496Z,1006.6
2017-08-24T05:39:29.488Z,1006.6
2017-08-24T05:40:29.475Z,1006.65
2017-08-24T05:41:29.465Z,1006.68
2017-08-24T05:42:29.455Z,1006.65
2017-08-24T05:43:29.451Z,1006.63
2017-08-24T05:44:29.435Z,1006.65
2017-08-24T05:45:29.425Z,1006.69
2017-08-24T05:46:29.414Z,1006.71
2017-08-24T05:47:29.417Z,1006.71
2017-08-24T05:48:29.395Z,1006.68
2017-08-24T05:49:29.384Z,1006.73
2017-08-24T05:50:29.375Z,1006.69
2017-08-24T05:51:29.365Z,1006.71
2017-08-24T05:52:29.353Z,1006.71
2017-08-24T05:53:29.344Z,1006.74
2017-08-24T05:54:29.335Z,1006.76
2017-08-24T05:55:29.323Z,1006.75
2017-08-24T05:56:29.517Z,1006.78
2017-08-24T05:57:29.304Z,1006.77
2017-08-24T05:58:29.295Z,1006.8
2017-08-24T05:59:29.284Z,1006.86
2017-08-24T06:00:29.274Z,1006.82
2017-08-24T06:01:29.263Z,1006.86
2017-08-24T06:02:29.253Z,1006.89
2017-08-24T06:03:29.244Z,1006.9
2017-08-24T06:04:29.235Z,1006.93
2017-08-24T06:05:29.226Z,1006.91
2017-08-24T06:06:29.217Z,1006.9
2017-08-24T06:07:29.204Z,1006.9
2017-08-24T06:08:29.198Z,1006.92
2017-08-24T06:09:29.184Z,1006.94
2017-08-24T06:10:29.174Z,1006.92
2017-08-24T06:11:29.162Z,1007.02
2017-08-24T06:12:29.166Z,1007.05
2017-08-24T06:13:29.143Z,1007.06
2017-08-24T06:14:29.132Z,1007.02
2017-08-24T06:15:29.124Z,1007.01
2017-08-24T06:16:29.113Z,1007
2017-08-24T06:17:29.106Z,1007
2017-08-24T06:18:29.094Z,1006.97
2017-08-24T06:19:29.084Z,1006.94
2017-08-24T06:20:29.073Z,1006.91
2017-08-24T06:21:29.065Z,1006.96
2017-08-24T06:22:29.056Z,1007.02
2017-08-24T06:23:29.047Z,1007.03
2017-08-24T06:24:29.034Z,1007.01
2017-08-24T06:25:29.064Z,1007.05
2017-08-24T06:26:29.015Z,1007.03
2017-08-24T06:27:29.008Z,1007.05
2017-08-24T06:28:28.994Z,1007.06
2017-08-24T06:29:28.986Z,1007.07
2017-08-24T06:30:28.978Z,1007.11
2017-08-24T06:31:28.964Z,1007.05
2017-08-24T06:32:28.956Z,1007.06
2017-08-24T06:33:28.946Z,1007.1
2017-08-24T06:34:28.942Z,1007.06
2017-08-24T06:35:28.926Z,1006.99
2017-08-24T06:36:28.919Z,1007.05
2017-08-24T06:37:28.907Z,1007.1
2017-08-24T06:38:28.900Z,1007.13
2017-08-24T06:39:28.887Z,1007.09
2017-08-24T06:40:28.877Z,1007.12
2017-08-24T06:41:28.870Z,1007.09
2017-08-24T06:42:28.859Z,1007.09
2017-08-24T06:43:28.849Z,1007.11
2017-08-24T06:44:28.840Z,1007.12
2017-08-24T06:45:28.830Z,1007.07
2017-08-24T06:46:28.820Z,1007.06
2017-08-24T06:47:28.810Z,1007.03
2017-08-24T06:48:28.802Z,1007.04
2017-08-24T06:49:28.845Z,1007.07
2017-08-24T06:50:28.782Z,1007.04
2017-08-24T06:51:28.773Z,1007.05
2017-08-24T06:52:28.764Z,1007.05
2017-08-24T06:53:28.753Z,1007.08
2017-08-24T06:54:28.743Z,1007.1
2017-08-24T06:55:28.734Z,1007.09
2017-08-24T06:56:28.727Z,1007.09
2017-08-24T06:57:28.716Z,1007.07
2017-08-24T06:58:28.707Z,1007.06
2017-08-24T06:59:28.696Z,1007.12
2017-08-24T07:00:28.689Z,1007.14
2017-08-24T07:01:28.676Z,1007.18
2017-08-24T07:02:28.674Z,1007.25
2017-08-24T07:03:28.658Z,1007.25
2017-08-24T07:04:28.648Z,1007.29
2017-08-24T07:05:28.638Z,1007.29
2017-08-24T07:06:28.630Z,1007.35
2017-08-24T07:07:28.620Z,1007.31
2017-08-24T07:08:28.611Z,1007.37
2017-08-24T07:09:28.600Z,1007.31
2017-08-24T07:10:28.592Z,1007.35
2017-08-24T07:11:28.582Z,1007.35
2017-08-24T07:12:28.570Z,1007.37
2017-08-24T07:13:28.565Z,1007.39
2017-08-24T07:14:28.554Z,1007.39
2017-08-24T07:15:28.545Z,1007.38
2017-08-24T07:16:28.534Z,1007.42
2017-08-24T07:17:28.523Z,1007.47
2017-08-24T07:18:28.514Z,1007.51
2017-08-24T07:19:28.505Z,1007.43
2017-08-24T07:20:28.494Z,1007.42
2017-08-24T07:21:28.487Z,1007.41
2017-08-24T07:22:28.477Z,1007.44
2017-08-24T07:23:28.466Z,1007.44
2017-08-24T07:24:28.456Z,1007.44
2017-08-24T07:25:28.448Z,1007.43
2017-08-24T07:26:28.441Z,1007.43
2017-08-24T07:27:28.426Z,1007.47
2017-08-24T07:28:28.419Z,1007.46
2017-08-24T07:29:28.432Z,1007.49
2017-08-24T07:30:28.398Z,1007.58
2017-08-24T07:31:28.389Z,1007.53
2017-08-24T07:32:28.380Z,1007.52
2017-08-24T07:33:28.370Z,1007.58
2017-08-24T07:34:28.361Z,1007.57
2017-08-24T07:35:28.350Z,1007.52
2017-08-24T07:36:28.342Z,1007.55
2017-08-24T07:37:28.331Z,1007.5
2017-08-24T07:38:28.325Z,1007.54
2017-08-24T07:39:28.314Z,1007.49
2017-08-24T07:40:28.304Z,1007.54
2017-08-24T07:41:28.294Z,1007.53
2017-08-24T07:42:28.286Z,1007.57
2017-08-24T07:43:28.274Z,1007.61
2017-08-24T07:44:28.267Z,1007.6
2017-08-24T07:45:28.260Z,1007.66
2017-08-24T07:46:28.248Z,1007.64
2017-08-24T07:47:28.240Z,1007.59
2017-08-24T07:48:28.233Z,1007.6
2017-08-24T07:49:28.220Z,1007.62
2017-08-24T07:50:28.220Z,1007.64
2017-08-24T07:51:28.202Z,1007.68
2017-08-24T07:52:28.194Z,1007.63
2017-08-24T07:53:28.185Z,1007.66
2017-08-24T07:54:28.176Z,1007.65
2017-08-24T07:55:28.169Z,1007.65
2017-08-24T07:56:28.360Z,1007.64
2017-08-24T07:57:28.149Z,1007.71
2017-08-24T07:58:28.140Z,1007.73
2017-08-24T07:59:28.129Z,1007.69
2017-08-24T08:00:28.121Z,1007.76
2017-08-24T08:01:28.113Z,1007.67
2017-08-24T08:02:28.104Z,1007.69
2017-08-24T08:03:28.094Z,1007.71
2017-08-24T08:04:28.085Z,1007.72
2017-08-24T08:05:28.078Z,1007.74
2017-08-24T08:06:28.068Z,1007.7
2017-08-24T08:07:28.061Z,1007.72
2017-08-24T08:08:28.050Z,1007.71
2017-08-24T08:09:28.041Z,1007.76
2017-08-24T08:10:28.031Z,1007.78
2017-08-24T08:11:28.023Z,1007.8
2017-08-24T08:12:28.017Z,1007.78
2017-08-24T08:13:28.006Z,1007.82
2017-08-24T08:14:28.000Z,1007.77
2017-08-24T08:15:27.989Z,1007.79
2017-08-24T08:16:27.980Z,1007.78
2017-08-24T08:17:27.970Z,1007.81
2017-08-24T08:18:27.963Z,1007.81
2017-08-24T08:19:27.954Z,1007.86
2017-08-24T08:20:27.952Z,1007.81
2017-08-24T08:21:27.937Z,1007.83
2017-08-24T08:22:27.928Z,1007.81
2017-08-24T08:23:27.922Z,1007.82
2017-08-24T08:24:27.913Z,1007.82
2017-08-24T08:25:27.903Z,1007.81
2017-08-24T08:26:27.896Z,1007.84
2017-08-24T08:27:27.886Z,1007.87
2017-08-24T08:28:27.878Z,1007.86
2017-08-24T08:29:27.870Z,1007.9
2017-08-24T08:30:27.861Z,1007.89
2017-08-24T08:31:27.851Z,1007.9
2017-08-24T08:32:27.846Z,1007.94
2017-08-24T08:33:27.835Z,1007.95
2017-08-24T08:34:27.827Z,1007.98
2017-08-24T08:35:27.819Z,1007.91
2017-08-24T08:36:27.811Z,1008
2017-08-24T08:37:27.800Z,1008
2017-08-24T08:38:27.792Z,1007.99
2017-08-24T08:39:27.785Z,1007.97
2017-08-24T08:40:27.779Z,1007.98
2017-08-24T08:41:27.768Z,1007.99
2017-08-24T08:42:27.759Z,1007.98
2017-08-24T08:43:27.749Z,1007.99
2017-08-24T08:44:27.745Z,1007.99
2017-08-24T08:45:27.735Z,1008.01
2017-08-24T08:46:27.727Z,1007.99
2017-08-24T08:47:27.718Z,1008
2017-08-24T08:48:27.707Z,1008.03
2017-08-24T08:49:27.701Z,1007.98
2017-08-24T08:50:27.690Z,1007.98
2017-08-24T08:51:27.683Z,1008.01
2017-08-24T08:52:27.675Z,1008.03
2017-08-24T08:53:27.667Z,1008.04
2017-08-24T08:54:27.658Z,1008.06
2017-08-24T08:55:27.653Z,1008.04
2017-08-24T08:56:27.642Z,1008.08
2017-08-24T08:57:27.634Z,1008.05
2017-08-24T08:58:27.676Z,1008.05
2017-08-24T08:59:27.618Z,1008.04
2017-08-24T09:00:27.611Z,1008.05
2017-08-24T09:01:27.605Z,1008.07
2017-08-24T09:02:27.593Z,1008.06
2017-08-24T09:03:27.586Z,1008.07
2017-08-24T09:04:27.578Z,1008.07
2017-08-24T09:05:27.570Z,1008.14
2017-08-24T09:06:27.563Z,1008.14
2017-08-24T09:07:27.557Z,1008.16
2017-08-24T09:08:27.548Z,1008.13
2017-08-24T09:09:27.537Z,1008.13
2017-08-24T09:10:27.530Z,1008.14
2017-08-24T09:11:27.523Z,1008.07
2017-08-24T09:12:27.515Z,1008.06
2017-08-24T09:13:27.559Z,1008.1
2017-08-24T09:14:27.501Z,1008.07
2017-08-24T09:15:27.493Z,1008.12
2017-08-24T09:16:27.485Z,1008.09
2017-08-24T09:17:27.480Z,1008.08
2017-08-24T09:18:27.472Z,1008.15
2017-08-24T09:19:27.464Z,1008.16
2017-08-24T09:20:27.458Z,1008.13
2017-08-24T09:21:27.449Z,1008.17
2017-08-24T09:22:27.441Z,1008.13
2017-08-24T09:23:27.433Z,1008.16
2017-08-24T09:24:27.424Z,1008.18
2017-08-24T09:25:27.420Z,1008.17
2017-08-24T09:26:27.412Z,1008.18
2017-08-24T09:27:27.405Z,1008.12
2017-08-24T09:28:27.449Z,1008.13
2017-08-24T09:29:27.391Z,1008.21
2017-08-24T09:30:27.385Z,1008.2
2017-08-24T09:31:27.377Z,1008.18
2017-08-24T09:32:27.369Z,1008.21
2017-08-24T09:33:27.361Z,1008.2
2017-08-24T09:34:27.355Z,1008.18
2017-08-24T09:35:27.349Z,1008.21
2017-08-24T09:36:27.345Z,1008.23
2017-08-24T09:37:27.337Z,1008.23
2017-08-24T09:38:27.330Z,1008.23
2017-08-24T09:39:27.320Z,1008.21
2017-08-24T09:40:27.314Z,1008.19
2017-08-24T09:41:27.306Z,1008.17
2017-08-24T09:42:27.308Z,1008.18
2017-08-24T09:43:27.295Z,1008.23
2017-08-24T09:44:27.287Z,1008.28
2017-08-24T09:45:27.279Z,1008.25
2017-08-24T09:46:27.274Z,1008.23
2017-08-24T09:47:27.266Z,1008.24
2017-08-24T09:48:27.258Z,1008.27
2017-08-24T09:49:27.251Z,1008.28
2017-08-24T09:50:27.243Z,1008.31
2017-08-24T09:51:27.238Z,1008.37
2017-08-24T09:52:27.230Z,1008.36
2017-08-24T09:53:27.221Z,1008.37
2017-08-24T09:54:27.214Z,1008.34
2017-08-24T09:55:27.206Z,1008.35
2017-08-24T09:56:27.400Z,1008.37
2017-08-24T09:57:27.192Z,1008.34
2017-08-24T09:58:27.185Z,1008.35
2017-08-24T09:59:27.177Z,1008.32
2017-08-24T10:00:27.173Z,1008.35
2017-08-24T10:01:27.163Z,1008.3
2017-08-24T10:02:27.154Z,1008.39
2017-08-24T10:03:27.149Z,1008.36
2017-08-24T10:04:27.140Z,1008.36
2017-08-24T10:05:27.130Z,1008.41
2017-08-24T10:06:27.122Z,1008.41
2017-08-24T10:07:27.115Z,1008.36
2017-08-24T10:08:27.108Z,1008.33
2017-08-24T10:09:27.099Z,1008.37
2017-08-24T10:10:27.090Z,1008.42
2017-08-24T10:11:27.084Z,1008.41
2017-08-24T10:12:27.075Z,1008.4
2017-08-24T10:13:27.066Z,1008.42
2017-08-24T10:14:27.058Z,1008.42
2017-08-24T10:15:27.051Z,1008.42
2017-08-24T10:16:27.042Z,1008.45
2017-08-24T10:17:27.036Z,1008.41
2017-08-24T10:18:27.027Z,1008.45
2017-08-24T10:19:27.019Z,1008.41
2017-08-24T10:20:27.010Z,1008.45
2017-08-24T10:21:27.000Z,1008.37
2017-08-24T10:22:26.994Z,1008.38
2017-08-24T10:23:26.986Z,1008.4
2017-08-24T10:24:26.976Z,1008.38
2017-08-24T10:25:26.970Z,1008.38
2017-08-24T10:26:26.960Z,1008.33
2017-08-24T10:27:26.956Z,1008.36
2017-08-24T10:28:26.980Z,1008.31
2017-08-24T10:29:27.009Z,1008.33
2017-08-24T10:30:26.975Z,1008.3
2017-08-24T10:31:26.923Z,1008.32
2017-08-24T10:32:26.920Z,1008.32
2017-08-24T10:33:26.909Z,1008.29
2017-08-24T10:34:26.902Z,1008.34
2017-08-24T10:35:26.892Z,1008.34
2017-08-24T10:36:26.887Z,1008.33
2017-08-24T10:37:26.877Z,1008.35
2017-08-24T10:38:26.870Z,1008.37
2017-08-24T10:39:26.864Z,1008.36
2017-08-24T10:40:26.856Z,1008.34
2017-08-24T10:41:26.857Z,1008.35
2017-08-24T10:42:26.843Z,1008.33
2017-08-24T10:43:26.836Z,1008.37
2017-08-24T10:44:26.828Z,1008.34
2017-08-24T10:45:26.871Z,1008.35
2017-08-24T10:46:26.815Z,1008.38
2017-08-24T10:47:26.808Z,1008.34
2017-08-24T10:48:26.802Z,1008.36
2017-08-24T10:49:26.798Z,1008.41
2017-08-24T10:50:26.839Z,1008.45
2017-08-24T10:51:26.787Z,1008.54
2017-08-24T10:52:26.774Z,1008.41
2017-08-24T10:53:26.770Z,1008.47
2017-08-24T10:54:26.761Z,1008.4
2017-08-24T10:55:26.767Z,1008.39
2017-08-24T10:56:26.750Z,1008.41
2017-08-24T10:57:26.744Z,1008.37
2017-08-24T10:58:26.732Z,1008.43
2017-08-24T10:59:26.725Z,1008.42
2017-08-24T11:00:26.719Z,1008.43
2017-08-24T11:01:26.731Z,1008.4
2017-08-24T11:02:26.705Z,1008.43
2017-08-24T11:03:26.699Z,1008.39
2017-08-24T11:04:26.690Z,1008.47
2017-08-24T11:05:26.686Z,1008.43
2017-08-24T11:06:26.679Z,1008.43
2017-08-24T11:07:26.670Z,1008.43
2017-08-24T11:08:26.664Z,1008.44
2017-08-24T11:09:26.655Z,1008.45
2017-08-24T11:10:26.654Z,1008.45
2017-08-24T11:11:26.643Z,1008.43
2017-08-24T11:12:26.638Z,1008.47
2017-08-24T11:13:26.629Z,1008.48
2017-08-24T11:14:26.622Z,1008.45
2017-08-24T11:15:26.616Z,1008.41
2017-08-24T11:16:26.608Z,1008.45
2017-08-24T11:17:26.600Z,1008.46
2017-08-24T11:18:26.593Z,1008.45
2017-08-24T11:19:26.586Z,1008.48
2017-08-24T11:20:26.580Z,1008.43
2017-08-24T11:21:26.574Z,1008.44
2017-08-24T11:22:26.566Z,1008.46
2017-08-24T11:23:26.558Z,1008.49
2017-08-24T11:24:26.552Z,1008.46
2017-08-24T11:25:26.547Z,1008.46
2017-08-24T11:26:26.539Z,1008.45
2017-08-24T11:27:26.531Z,1008.46
2017-08-24T11:28:26.525Z,1008.48
2017-08-24T11:29:26.522Z,1008.47
2017-08-24T11:30:26.513Z,1008.51
2017-08-24T11:31:26.506Z,1008.49
2017-08-24T11:32:26.499Z,1008.52
2017-08-24T11:33:26.492Z,1008.57
2017-08-24T11:34:26.488Z,1008.54
2017-08-24T11:35:26.479Z,1008.54
2017-08-24T11:36:26.474Z,1008.58
2017-08-24T11:37:26.468Z,1008.7
2017-08-24T11:38:26.462Z,1008.55
2017-08-24T11:39:26.458Z,1008.53
2017-08-24T11:40:26.449Z,1008.55
2017-08-24T11:41:26.444Z,1008.51
2017-08-24T11:42:26.436Z,1008.51
2017-08-24T11:43:26.432Z,1008.53
2017-08-24T11:44:26.427Z,1008.57
2017-08-24T11:45:26.420Z,1008.59
2017-08-24T11:46:26.428Z,1008.65
2017-08-24T11:47:26.414Z,1008.62
2017-08-24T11:48:26.403Z,1008.61
2017-08-24T11:49:26.401Z,1008.59
2017-08-24T11:50:26.392Z,1008.61
2017-08-24T11:51:26.387Z,1008.61
2017-08-24T11:52:26.382Z,1008.6
2017-08-24T11:53:26.380Z,1008.6
2017-08-24T11:54:26.370Z,1008.63
2017-08-24T11:55:26.367Z,1008.62
2017-08-24T11:56:26.360Z,1008.63
2017-08-24T11:57:26.356Z,1008.61
2017-08-24T11:58:26.350Z,1008.6
2017-08-24T11:59:26.344Z,1008.65
2017-08-24T12:00:26.339Z,1008.65
2017-08-24T12:01:26.334Z,1008.6
2017-08-24T12:02:26.326Z,1008.63
2017-08-24T12:03:26.321Z,1008.62
2017-08-24T12:04:26.316Z,1008.67
2017-08-24T12:05:26.309Z,1008.66
2017-08-24T12:06:26.325Z,1008.72
2017-08-24T12:07:26.299Z,1008.64
2017-08-24T12:08:26.294Z,1008.64